createdAt,value
2023-05-13T00:03:01.091Z,9.44
2023-05-13T00:08:05.194Z,9.35
2023-05-13T00:13:07.428Z,9.24
2023-05-13T00:18:11.607Z,9.14
2023-05-13T00:23:15.770Z,9.09
2023-05-13T00:28:19.925Z,9.05
2023-05-13T00:33:24.114Z,9.02
2023-05-13T00:38:28.256Z,9.05
2023-05-13T00:43:32.379Z,9.12
2023-05-13T00:48:36.565Z,9.06
2023-05-13T00:53:40.723Z,8.99
2023-05-13T00:58:44.886Z,8.93
2023-05-13T01:03:49.049Z,8.89
2023-05-13T01:08:53.188Z,8.84
2023-05-13T01:13:57.334Z,8.76
2023-05-13T01:19:01.554Z,8.66
2023-05-13T01:24:05.726Z,8.58
2023-05-13T01:29:09.855Z,8.51
2023-05-13T01:34:14.022Z,8.50
2023-05-13T01:39:18.189Z,8.55
2023-05-13T01:44:22.329Z,8.54
2023-05-13T01:49:26.494Z,8.56
2023-05-13T01:54:30.647Z,8.47
2023-05-13T01:59:34.810Z,8.46
2023-05-13T02:04:38.995Z,8.41
2023-05-13T02:09:43.149Z,8.33
2023-05-13T02:14:47.339Z,8.29
2023-05-13T02:19:51.481Z,8.22
2023-05-13T02:24:55.632Z,8.19
2023-05-13T02:29:59.772Z,8.25
2023-05-13T02:35:03.930Z,8.29
2023-05-13T02:40:08.147Z,8.26
2023-05-13T02:45:12.273Z,8.32
2023-05-13T02:50:16.432Z,8.25
2023-05-13T02:55:20.736Z,8.17
2023-05-13T03:00:24.774Z,8.13
2023-05-13T03:05:29.875Z,8.13
2023-05-13T03:10:33.231Z,8.12
2023-05-13T03:15:37.301Z,8.16
2023-05-13T03:20:41.450Z,8.14
2023-05-13T03:25:45.589Z,8.09
2023-05-13T03:30:49.729Z,8.06
2023-05-13T03:35:53.984Z,8.07
2023-05-13T03:40:58.072Z,8.01
2023-05-13T03:46:02.245Z,7.99
2023-05-13T03:51:06.364Z,7.94
2023-05-13T03:56:12.167Z,7.97
2023-05-13T04:01:14.691Z,7.90
2023-05-13T04:06:18.898Z,7.92
2023-05-13T04:11:23.072Z,7.96
2023-05-13T04:16:27.228Z,7.96
2023-05-13T04:21:31.364Z,8.01
2023-05-13T04:26:35.522Z,8.00
2023-05-13T04:31:39.706Z,8.03
2023-05-13T04:36:43.872Z,8.08
2023-05-13T04:41:48.025Z,8.17
2023-05-13T04:46:52.164Z,8.23
2023-05-13T04:51:56.341Z,8.29
2023-05-13T04:57:00.529Z,8.35
2023-05-13T05:02:04.801Z,8.43
2023-05-13T05:07:08.844Z,8.47
2023-05-13T05:12:13.022Z,8.52
2023-05-13T05:17:17.229Z,8.59
2023-05-13T05:22:21.341Z,8.71
2023-05-13T05:27:25.455Z,8.65
2023-05-13T05:32:29.656Z,8.73
2023-05-13T05:37:33.917Z,8.84
2023-05-13T05:42:36.040Z,8.96
2023-05-13T05:47:40.263Z,9.14
2023-05-13T05:52:44.415Z,9.36
2023-05-13T05:57:48.668Z,9.56
2023-05-13T06:02:52.730Z,9.70
2023-05-13T06:07:56.828Z,9.88
2023-05-13T06:13:01.063Z,9.88
2023-05-13T06:18:05.220Z,9.69
2023-05-13T06:23:09.372Z,9.54
2023-05-13T06:28:13.531Z,9.69
2023-05-13T06:33:17.743Z,9.90
2023-05-13T06:38:21.876Z,10.39
2023-05-13T06:43:26.040Z,10.69
2023-05-13T06:48:30.178Z,11.05
2023-05-13T06:53:34.303Z,11.33
2023-05-13T06:58:38.455Z,11.66
2023-05-13T07:03:42.736Z,12.10
2023-05-13T07:08:46.780Z,12.21
2023-05-13T07:13:50.988Z,12.42
2023-05-13T07:18:55.212Z,12.70
2023-05-13T07:23:59.308Z,12.92
2023-05-13T07:29:03.519Z,13.32
2023-05-13T07:34:07.591Z,13.75
2023-05-13T07:39:11.759Z,14.19
2023-05-13T07:44:15.951Z,14.52
2023-05-13T07:49:20.092Z,14.53
2023-05-13T07:59:28.435Z,15.07
2023-05-13T08:04:32.560Z,15.25
2023-05-13T08:09:36.687Z,15.54
2023-05-13T08:14:40.901Z,15.82
2023-05-13T08:19:45.055Z,16.02
2023-05-13T08:24:49.211Z,16.37
2023-05-13T08:29:53.384Z,16.56
2023-05-13T08:34:57.783Z,16.64
2023-05-13T08:40:01.686Z,16.89
2023-05-13T08:45:05.827Z,17.11
2023-05-13T08:50:10.047Z,17.46
2023-05-13T08:55:14.174Z,17.51
2023-05-13T09:00:20.631Z,17.82
2023-05-13T09:05:22.921Z,18.09
2023-05-13T09:10:26.647Z,18.37
2023-05-13T09:15:30.813Z,18.48
2023-05-13T09:20:34.956Z,18.72
2023-05-13T09:25:39.144Z,18.88
2023-05-13T09:30:45.443Z,19.01
2023-05-13T09:35:47.397Z,19.38
2023-05-13T09:40:51.599Z,19.51
2023-05-13T09:45:55.768Z,19.67
2023-05-13T09:51:00.451Z,19.79
2023-05-13T09:56:04.088Z,19.78
2023-05-13T10:01:08.264Z,19.97
2023-05-13T10:06:12.402Z,20.17
2023-05-13T10:11:16.562Z,20.30
2023-05-13T10:16:20.765Z,20.46
2023-05-13T10:21:24.903Z,20.58
2023-05-13T10:26:29.309Z,20.34
2023-05-13T10:31:35.996Z,20.56
2023-05-13T10:36:37.363Z,20.59
2023-05-13T10:41:41.512Z,20.65
2023-05-13T10:46:45.726Z,20.94
2023-05-13T10:51:49.840Z,20.89
2023-05-13T10:56:53.980Z,21.02
2023-05-13T11:01:58.151Z,21.12
2023-05-13T11:07:02.254Z,21.36
2023-05-13T11:12:04.535Z,21.53
2023-05-13T11:17:08.722Z,21.31
2023-05-13T11:22:12.870Z,21.55
2023-05-13T11:27:17.056Z,21.72
2023-05-13T11:32:21.201Z,21.54
2023-05-13T11:37:25.342Z,21.64
2023-05-13T11:42:29.504Z,22.01
2023-05-13T11:47:33.715Z,22.04
2023-05-13T11:52:37.817Z,22.17
2023-05-13T11:57:41.970Z,22.09
2023-05-13T12:02:46.217Z,22.04
2023-05-13T12:07:50.333Z,22.27
2023-05-13T12:12:54.467Z,22.17
2023-05-13T12:17:58.657Z,22.27
2023-05-13T12:23:02.757Z,22.75
2023-05-13T12:28:06.964Z,23.03
2023-05-13T12:33:11.165Z,22.84
2023-05-13T12:38:15.264Z,22.72
2023-05-13T12:43:19.485Z,21.95
2023-05-13T12:48:23.584Z,21.49
2023-05-13T12:53:27.756Z,22.35
2023-05-13T12:58:31.914Z,22.90
2023-05-13T13:03:36.178Z,22.92
2023-05-13T13:08:40.222Z,22.56
2023-05-13T13:13:44.352Z,22.94
2023-05-13T13:18:48.591Z,22.24
2023-05-13T13:23:52.683Z,21.60
2023-05-13T13:28:56.893Z,21.64
2023-05-13T13:34:00.987Z,21.48
2023-05-13T13:39:05.161Z,21.41
2023-05-13T13:44:09.291Z,21.43
2023-05-13T13:49:23.396Z,21.53
2023-05-13T13:54:17.662Z,21.36
2023-05-13T13:59:22.273Z,21.86
2023-05-13T14:04:25.963Z,22.38
2023-05-13T14:09:30.125Z,21.95
2023-05-13T14:14:34.241Z,21.23
2023-05-13T14:19:38.440Z,20.34
2023-05-13T14:24:44.676Z,19.01
2023-05-13T14:29:46.764Z,18.07
2023-05-13T14:34:50.912Z,17.50
2023-05-13T14:39:55.076Z,17.09
2023-05-13T14:44:59.224Z,16.61
2023-05-13T14:50:03.518Z,16.38
2023-05-13T14:55:07.570Z,16.36
2023-05-13T15:00:11.705Z,16.10
2023-05-13T15:05:21.115Z,16.14
2023-05-13T15:10:20.178Z,16.39
2023-05-13T15:15:24.180Z,16.60
2023-05-13T15:20:28.347Z,17.07
2023-05-13T15:25:32.521Z,17.40
2023-05-13T15:30:36.740Z,17.60
2023-05-13T15:35:40.798Z,17.77
2023-05-13T15:40:44.987Z,17.13
2023-05-13T15:45:49.142Z,16.86
2023-05-13T15:50:53.323Z,16.67
2023-05-13T15:55:57.463Z,16.74
2023-05-13T16:01:01.611Z,16.59
2023-05-13T16:06:09.157Z,16.83
2023-05-13T16:11:10.083Z,19.32
2023-05-13T16:16:14.227Z,22.35
2023-05-13T16:21:18.366Z,23.30
2023-05-13T16:26:22.512Z,24.16
2023-05-13T16:31:26.665Z,24.94
2023-05-13T16:36:30.813Z,25.36
2023-05-13T16:46:37.232Z,25.87
2023-05-13T16:51:41.338Z,26.10
2023-05-13T16:56:45.503Z,23.78
2023-05-13T17:01:49.780Z,21.61
2023-05-13T17:06:53.813Z,20.71
2023-05-13T17:11:56.098Z,19.99
2023-05-13T17:17:00.381Z,19.71
2023-05-13T17:22:04.455Z,19.39
2023-05-13T17:27:08.557Z,19.24
2023-05-13T17:32:12.701Z,18.89
2023-05-13T17:37:16.885Z,18.41
2023-05-13T17:42:21.052Z,18.20
2023-05-13T17:47:25.318Z,17.85
2023-05-13T17:52:29.403Z,17.71
2023-05-13T17:57:33.493Z,17.37
2023-05-13T18:02:37.737Z,17.15
2023-05-13T18:07:41.906Z,17.12
2023-05-13T18:12:48.474Z,16.58
2023-05-13T18:17:50.219Z,16.29
2023-05-13T18:22:54.372Z,16.11
2023-05-13T18:27:58.471Z,15.89
2023-05-13T18:33:02.739Z,15.79
2023-05-13T18:38:06.823Z,15.59
2023-05-13T18:43:10.950Z,15.45
2023-05-13T18:48:15.243Z,15.29
2023-05-13T18:53:19.289Z,14.79
2023-05-13T18:58:23.579Z,14.59
2023-05-13T19:03:27.711Z,14.26
2023-05-13T19:08:31.805Z,14.08
2023-05-13T19:13:46.697Z,13.89
2023-05-13T19:23:44.266Z,13.49
2023-05-13T19:28:48.381Z,13.35
2023-05-13T19:33:52.539Z,13.18
2023-05-13T19:38:56.689Z,13.11
2023-05-13T19:44:00.868Z,12.96
2023-05-13T19:49:05.019Z,12.84
2023-05-13T19:54:09.199Z,12.67
2023-05-13T19:59:13.382Z,12.43
2023-05-13T20:04:17.514Z,12.32
2023-05-13T20:09:21.681Z,12.21
2023-05-13T20:14:25.825Z,12.18
2023-05-13T20:19:29.965Z,12.04
2023-05-13T20:24:36.495Z,11.93
2023-05-13T20:29:38.290Z,11.87
2023-05-13T20:34:42.452Z,11.77
2023-05-13T20:39:46.617Z,11.68
2023-05-13T20:44:50.825Z,11.59
2023-05-13T20:49:54.977Z,11.49
2023-05-13T20:54:59.077Z,11.42
2023-05-13T21:00:03.245Z,11.32
2023-05-13T21:05:07.459Z,11.16
2023-05-13T21:10:11.623Z,11.08
2023-05-13T21:15:15.754Z,11.05
2023-05-13T21:20:20.013Z,10.94
2023-05-13T21:25:24.055Z,10.87
2023-05-13T21:30:28.233Z,10.79
2023-05-13T21:35:32.404Z,10.72
2023-05-13T21:40:36.542Z,10.61
2023-05-13T21:45:40.735Z,10.49
2023-05-13T21:50:44.874Z,10.38
2023-05-13T21:55:49.017Z,10.42
2023-05-13T22:00:53.206Z,10.42
2023-05-13T22:05:57.355Z,10.32
2023-05-13T22:11:01.486Z,10.20
2023-05-13T22:16:05.725Z,10.13
2023-05-13T22:21:09.838Z,9.99
2023-05-13T22:26:13.996Z,9.96
2023-05-13T22:31:18.208Z,9.91
2023-05-13T22:36:22.306Z,9.82
2023-05-13T22:41:24.585Z,9.75
2023-05-13T22:46:28.813Z,9.66
2023-05-13T22:51:32.866Z,9.56
2023-05-13T22:56:37.101Z,9.47
2023-05-13T23:01:41.254Z,9.46
2023-05-13T23:06:45.371Z,9.47
2023-05-13T23:11:49.574Z,9.36
2023-05-13T23:16:53.731Z,9.27
2023-05-13T23:21:57.861Z,9.25
2023-05-13T23:27:02.053Z,9.19
2023-05-13T23:32:07.144Z,9.03
2023-05-13T23:37:10.362Z,9.06
2023-05-13T23:42:14.564Z,9.02
2023-05-13T23:47:18.643Z,8.90
2023-05-13T23:52:22.862Z,8.89
2023-05-13T23:57:27.010Z,8.82
